메인 페이지
METAR-TAF:

METAR-TAF

공항 :

무르만스크, 러시아

위도: 68-58N, 경도: 033-03E, 고도: 51m

현재 날씨관측

예보는 28분 전, 03:00시(UTC)에 발표되었습니다.
2kt
온도 13°C
습도 77%
기압 1013 hPa
시정 10km 이상
고도 4000ft 상공 구름 보통, 적란운.
약한소나기

METAR: ULMM 170300Z 18001MPS 9999 -SHRA SCT040CB 13/09 Q1013 R13/190060 NOSIG RMK QFE753

시각: 06:28 (03:28 UTC)

예보

예보는 1 시간 38분 전, 01:50시(UTC)에 발표되었습니다.
예보 대상 시간: 17일 03시부터 18일 03시까지 (UTC)
6kt, 순간 최대 풍속 16kt
시정 10km 이상
고도 1100ft 상공 구름 많음
일시적
17일 03시부터 17일 05시까지 (UTC)
남남동6kt
시정: 5000m
고도 1100ft 상공 구름 많음, 적란운.
약한소나기
일시적
17일 05시부터 17일 18시까지 (UTC)
남서12kt, 순간 최대 풍속 23kt
시정: 3100m
고도 1100ft 상공 구름 많음, 적란운.
약한소나기
일시적
17일 18시부터 18일 03시까지 (UTC)
남서6kt
시정: 3100m
고도 1100ft 상공 구름 많음, 적란운.
약한소나기

TAF: ULMM 170150Z 1703/1803 18003G08MPS 9999 BKN011 TEMPO 1703/1705 15003MPS 5000 -SHRA BKN011CB TEMPO 1705/1718 22006G12MPS 3100 -SHRA BKN011CB TEMPO 1718/1803 22003MPS 3100 -SHRA BKN011CB

4,000개 이상의 공항 관측 자료 및 예보 (METAR 및 TAF 보고).

지도상에서 검색 가능한 기상관측소가 노란 점과 빨간 점으로 표시되어 있습니다.

기상관측소 명을 보려면 표시 위로 마우스를 이동하세요.

날씨 관측과 예보를 보려면 클릭하세요.

지도 변경 : 확대하려면 엑스 표시가 있는 녹색 버튼, 축소하려면 빼기 표시가 있는 녹색 버튼, 다음 페이지의 지도를 보려면 녹색 화살표를 클릭하세요.


METAR-TAF: